Santa Cruz de la Sierra, Bolivia

3:59 AM BOT en Octubre 22, 2014 (GMT -0400)
Viru Viru International | Change Station
CLOSE
Current Station
Aeropuerto
Location: Viru-Viru,
Altura: 1224 ft
Estaciones meteorológicas cercanas

Alt 1224 ft 17.64 °S, 63.14 °W | Updated 59 minutes ago

Mostly Cloudy
Muy nublado
77 ° F
Sensación térmica 77 ° F
N
6
Viento Variable Viento desde SSO

Hoy
Alta -- | Baja -- ° F
--% Posibilidad de precipitaciones
Ayer
Alta -- | Baja -- ° F
Precip. -- pul
5:39 AM 6:15 PM
Creciente menguante, 3% visible
Presión 29.92 pul
Visibilidad 5.0 Millas
Nubes Baja 2000 ft
Nubes dispersas 7000 ft
Muy nublado 20000 ft
Punto de rocío 64 ° F
Humedad 65%
Precipitaciones 0.00 pul
Espesor de la nieve No disponible.
UV 0 de una escala de 12
Polen No disponible.
Calidad del aire No disponible.
Flu Activity No disponible.
METAR SLVR 220700Z 21005KT 8000 FEW020 SCT070 BKN200 25/18 Q1013

More Conditions Fewer Conditions

Presión 29.92 pul
Visibilidad 5.0 Millas
Nubes Baja 2000 ft
Nubes dispersas 7000 ft
Muy nublado 20000 ft
Punto de rocío 64 ° F
Humedad 65%
Precipitaciones 0.00 pul
Espesor de la nieve No disponible.
UV 0 de una escala de 12
Polen No disponible.
Calidad del aire No disponible.
Flu Activity No disponible.
METAR SLVR 220700Z 21005KT 8000 FEW020 SCT070 BKN200 25/18 Q1013

More Conditions Fewer Conditions

10-Day Weather Forecast

Almanac

Astronomía

Oct. 22, 2014 Salida Puesta
Hora real 5:39 AM BOT 6:15 PM BOT
Crepúsculo civil 5:16 AM BOT 6:37 PM BOT
Crepúsculo náutico 4:50 AM BOT 7:03 PM BOT
Crepúsculo astronómico 4:24 AM BOT 7:30 PM BOT
Luna 4:43 AM BOT 5:20 PM BOT
Horas de luz 13h 20m
Horas de luz
12h 36m
Tomorrow will be 0m 57s longer.
Creciente menguante, 3% of the Moon is Illuminated
Hoy
Creciente menguante
Oct 23
Nueva
Oct 30
Cuarto creciente
Nov 6
Luna llena
Nov 14
Cuarto menguante

Extremos de ayer

Máximos del país Bajas del país

Community

WunderPhotos

Upload Photos

1,763,889 ¡fotos cargadas!

Nearby

Calidad del aire

Not available.

Grosos de nieve

Not available.

Actividad de terremotos

Ciudad Distance Mag. Tiempo y dato
No hay informes recientes de la actividad sísmica.
Magnitud mínima muestra es 2,5.

Temperaturas de aguas costeras

Lugar Temperatura
Sin partes meteorológicos de las estaciones

Estaciones meteorológicas cercanas